Terminal Aerodrome Forecast
Issued by NWS

Home | Current Version | Previous Version | Text Only | Print | Product List | Glossary On
Versions: 1 2 3 4 5 6 7 8 9 10 11 12 13 14 15 16 17 18 19 20 21 22 23 24
177
FTAK31 PAJN 032337
TAFAYA
TAF
PAYA 032337Z 0400/0424 VRB04KT 6SM -SN SCT025 BKN040 OVC060
      TEMPO 0400/0404 1SM -SHSN SCT008 BKN015 OVC025
     FM040400 12008KT 6SM -SHSN SCT025 BKN050
      TEMPO 0404/0406 2SM -SHSN FEW004 BKN008 OVC015
     FM040600 06008KT P6SM VCSH SCT020 BKN040 BKN060 WS020/09025KT
     FM041200 06010KT P6SM SCT030 SCT060 WS020/06030KT
      AMD LTD TO CLD VIS AND WIND 0401/0409=

USA.gov is the U.S. government's official web portal to all federal, state and local government web resources and services.